This is the latest recevied weather packets stored in our database for station/object SQ5DN-4. If no packets are shown the sender has not sent any weather packets the latest 10 day(s).
| Time | Temp. | Humidity | Pressure | Rain* | Wind** | Luminosity | Snow |
|---|---|---|---|---|---|---|---|
| 1777876772 | 20.56° C | 37% | 1009 hPa | - | - | - | - |
| 1777876256 | 20.56° C | 38% | 1009 hPa | - | - | - | - |
| 1777875682 | 20° C | 37% | 1009 hPa | - | - | - | - |
| 1777875196 | 19.44° C | 39% | 1009 hPa | - | - | - | - |
| 1777874597 | 19.44° C | 39% | 1009 hPa | - | - | - | - |
| 1777874032 | 18.89° C | 40% | 1009 hPa | - | - | - | - |
| 1777873542 | 18.33° C | 41% | 1009 hPa | - | - | - | - |
| 1777873052 | 18.33° C | 41% | 1009 hPa | - | - | - | - |
| 1777872547 | 17.78° C | 41% | 1009 hPa | - | - | - | - |
| 1777871967 | 17.78° C | 42% | 1010 hPa | - | - | - | - |
| 1777871436 | 17.78° C | 41% | 1010 hPa | - | - | - | - |
| 1777870886 | 17.22° C | 41% | 1009 hPa | - | - | - | - |
| 1777870392 | 17.22° C | 42% | 1009 hPa | - | - | - | - |
| 1777869882 | 16.67° C | 44% | 1009 hPa | - | - | - | - |
| 1777869322 | 16.11° C | 46% | 1009 hPa | - | - | - | - |
| 1777868787 | 15° C | 48% | 1009 hPa | - | - | - | - |
| 1777868187 | 14.44° C | 49% | 1009 hPa | - | - | - | - |
| 1777867696 | 14.44° C | 49% | 1009 hPa | - | - | - | - |
| 1777867116 | 14.44° C | 50% | 1009 hPa | - | - | - | - |
| 1777866596 | 13.33° C | 53% | 1009 hPa | - | - | - | - |
| 1777865996 | 12.78° C | 55% | 1009 hPa | - | - | - | - |
| 1777865482 | 12.78° C | 54% | 1009 hPa | - | - | - | - |
| 1777865002 | 12.78° C | 55% | 1009 hPa | - | - | - | - |
| 1777864427 | 11.67° C | 57% | 1009 hPa | - | - | - | - |
| 1777863877 | 12.22° C | 55% | 1009 hPa | - | - | - | - |
* Rain since midnight (hover to see other rain measurements)
** Current wind speed in m/s (hover to see current wind gust speed)